Broxbourne, United Kingdom
Current Conditions -  °F | °C
As of 11:50 PM on Wednesday 28 Jan 2015 (Local Time) from EGSS Reporting Station
Clear Clear  
Wind Chill: 24°   Ceiling: Unl
Heat Index: 34°   Visibility: 6mi
Dew Point: 28°   Wind: 16mph
Humidity: 81%   Direction: 240°WSW
Pressure: 29.44"   Gusts: NA
Location:  51.73°N, 0.03°W
Report Text: EGSS 282350Z 24014KT CAVOK 01/M02 Q0997
Loading
Personal Weather Stations






























Interactive Weather Map New forecast layout! Learn more

10-Day Weather Forecast

Advertisements
Track Severe Weather on mobile